Time;durP1;ratioP1;P1;durP2;ratioP2;P2;SDS_P1;SDS_P2;PMS_P1;PMS_P2;Temp;Humidity;BMP_temperature;BMP_pressure;BME280_temperature;BME280_humidity;BME280_pressure;Samples;Min_cycle;Max_cycle;Signal;HPM_P1;HPM_P2
2021/08/21 00:01:10;;;;;;;10.77;9.10;;;10.60;99.90;;;;;;5056406;28;20369;-92
2021/08/21 00:03:38;;;;;;;11.82;8.30;;;10.70;99.90;;;;;;5055502;28;20048;-93
2021/08/21 00:06:04;;;;;;;11.52;8.32;;;10.60;99.90;;;;;;5055465;28;20052;-93
2021/08/21 00:08:31;;;;;;;10.55;8.57;;;10.50;99.90;;;;;;5055574;28;20135;-93
2021/08/21 00:10:58;;;;;;;10.43;8.73;;;10.50;99.90;;;;;;5055563;28;20055;-93
2021/08/21 00:13:25;;;;;;;12.90;8.57;;;10.50;99.90;;;;;;5055582;28;20056;-93
2021/08/21 00:15:52;;;;;;;12.23;9.07;;;10.40;99.90;;;;;;5055272;28;20135;-94
2021/08/21 00:18:20;;;;;;;10.73;9.27;;;10.40;99.90;;;;;;5055500;28;20086;-94
2021/08/21 00:20:47;;;;;;;9.45;8.23;;;10.50;99.90;;;;;;5055522;28;20080;-94
2021/08/21 00:23:14;;;;;;;11.45;9.07;;;10.50;99.90;;;;;;5055560;28;20052;-94
2021/08/21 00:25:40;;;;;;;9.85;8.57;;;10.50;99.90;;;;;;5056070;28;20489;-94
2021/08/21 00:28:07;;;;;;;9.55;8.55;;;10.50;99.90;;;;;;5060037;28;20112;-93
2021/08/21 00:30:34;;;;;;;10.98;8.65;;;10.50;99.90;;;;;;5056286;28;20070;-94
2021/08/21 00:33:00;;;;;;;9.85;8.90;;;10.50;99.90;;;;;;5055266;28;20076;-94
2021/08/21 00:35:27;;;;;;;9.68;8.68;;;10.60;99.90;;;;;;5056853;28;20140;-93
2021/08/21 00:37:54;;;;;;;9.25;7.95;;;10.60;99.90;;;;;;5059105;28;20135;-93
2021/08/21 00:40:21;;;;;;;9.27;8.35;;;10.60;99.90;;;;;;5059081;28;20048;-93
2021/08/21 00:42:51;;;;;;;10.48;8.30;;;10.60;99.90;;;;;;5058856;28;20048;-94
2021/08/21 00:45:18;;;;;;;9.40;8.05;;;10.60;99.90;;;;;;5058573;28;20048;-94
2021/08/21 00:47:45;;;;;;;11.95;9.00;;;10.60;99.90;;;;;;5058729;28;20155;-92
2021/08/21 00:50:12;;;;;;;9.85;8.15;;;10.60;99.90;;;;;;5058484;28;20493;-94
2021/08/21 00:52:39;;;;;;;8.52;7.65;;;10.60;99.90;;;;;;5058623;28;20074;-93
2021/08/21 00:55:07;;;;;;;8.80;7.90;;;10.60;99.90;;;;;;5058250;28;20497;-93
2021/08/21 00:57:34;;;;;;;11.18;8.77;;;10.50;99.90;;;;;;5058445;28;20087;-93
2021/08/21 01:00:02;;;;;;;10.25;8.75;;;10.50;99.90;;;;;;5058638;28;20053;-93
2021/08/21 01:02:31;;;;;;;10.05;9.00;;;10.60;99.90;;;;;;5058173;28;20056;-92
2021/08/21 01:04:59;;;;;;;11.43;9.40;;;10.50;99.90;;;;;;5058419;28;20102;-93
2021/08/21 01:07:28;;;;;;;13.52;10.07;;;10.60;99.90;;;;;;5058360;28;20049;-91
2021/08/21 01:09:58;;;;;;;11.90;10.55;;;10.70;99.90;;;;;;5058183;28;20044;-93
2021/08/21 01:12:25;;;;;;;12.52;10.60;;;10.80;99.90;;;;;;5057809;28;20139;-93
2021/08/21 01:14:52;;;;;;;13.40;10.18;;;10.90;99.90;;;;;;5057861;28;20136;-93
2021/08/21 01:17:19;;;;;;;13.73;9.60;;;11.00;99.90;;;;;;5058145;28;20046;-93
2021/08/21 01:19:49;;;;;;;10.65;9.13;;;11.10;99.90;;;;;;5058128;28;20128;-93
2021/08/21 01:22:25;;;;;;;13.43;9.65;;;11.10;99.90;;;;;;5057924;28;20133;-93
2021/08/21 01:24:54;;;;;;;10.32;9.23;;;11.20;99.90;;;;;;5058079;28;20102;-91
2021/08/21 01:27:27;;;;;;;11.35;8.98;;;11.20;99.90;;;;;;5057900;28;20056;-93
2021/08/21 01:29:54;;;;;;;10.55;9.05;;;11.30;99.90;;;;;;5057916;28;20135;-91
2021/08/21 01:32:22;;;;;;;10.02;9.00;;;11.30;99.90;;;;;;5057967;28;20140;-93
2021/08/21 01:34:49;;;;;;;10.00;8.43;;;11.30;99.90;;;;;;5057571;28;20071;-93
2021/08/21 01:37:17;;;;;;;8.52;7.72;;;11.30;99.90;;;;;;5057646;28;20456;-94
2021/08/21 01:39:49;;;;;;;10.05;8.63;;;11.30;99.90;;;;;;5057765;28;20090;-93
2021/08/21 01:42:16;;;;;;;11.93;8.52;;;11.30;99.90;;;;;;5057724;28;20127;-93
2021/08/21 01:44:43;;;;;;;10.20;8.55;;;11.30;99.90;;;;;;5058104;28;20474;-91
2021/08/21 01:47:10;;;;;;;9.45;8.48;;;11.30;99.90;;;;;;5061632;28;20135;-92
2021/08/21 01:49:38;;;;;;;10.73;8.70;;;11.30;99.90;;;;;;5059326;28;20059;-93
2021/08/21 01:52:05;;;;;;;10.07;8.77;;;11.20;99.90;;;;;;5057469;28;20063;-93
2021/08/21 01:54:36;;;;;;;10.07;9.00;;;11.10;99.90;;;;;;5057143;28;20044;-93
2021/08/21 01:57:06;;;;;;;9.80;8.45;;;11.10;99.90;;;;;;5057207;28;20040;-93
2021/08/21 01:59:33;;;;;;;11.15;8.75;;;11.00;99.90;;;;;;5057392;28;20060;-93
2021/08/21 02:02:01;;;;;;;12.15;9.57;;;10.90;99.90;;;;;;5057171;28;20048;-93
2021/08/21 02:04:29;;;;;;;10.32;8.27;;;10.90;99.90;;;;;;5056955;28;20052;-93
2021/08/21 02:06:56;;;;;;;10.63;8.73;;;11.00;99.90;;;;;;5057420;28;20056;-93
2021/08/21 02:09:24;;;;;;;9.32;8.35;;;11.00;99.90;;;;;;5057028;28;20571;-94
2021/08/21 02:11:53;;;;;;;10.43;8.18;;;11.00;99.90;;;;;;5057221;28;20135;-92
2021/08/21 02:14:20;;;;;;;11.63;8.88;;;11.00;99.90;;;;;;5057068;28;20116;-93
2021/08/21 02:16:53;;;;;;;10.65;9.43;;;10.90;99.90;;;;;;5056724;28;20511;-93
2021/08/21 02:19:21;;;;;;;12.38;9.65;;;10.90;99.90;;;;;;5057420;28;20054;-93
2021/08/21 02:21:49;;;;;;;14.10;9.10;;;10.90;99.90;;;;;;5056960;28;20552;-94
2021/08/21 02:24:18;;;;;;;14.95;9.27;;;10.90;99.90;;;;;;5057014;28;20044;-93
2021/08/21 02:26:45;;;;;;;10.45;8.55;;;10.80;99.90;;;;;;5056746;28;20052;-93
2021/08/21 02:29:13;;;;;;;13.13;9.25;;;10.80;99.90;;;;;;5057924;28;20516;-93
2021/08/21 02:31:40;;;;;;;10.88;8.70;;;10.70;99.90;;;;;;5059378;28;20143;-93
2021/08/21 02:34:07;;;;;;;13.35;9.98;;;10.60;99.90;;;;;;5056675;28;20053;-93
2021/08/21 02:36:34;;;;;;;12.25;9.68;;;10.60;99.90;;;;;;5056380;28;20420;-94
2021/08/21 02:39:01;;;;;;;16.27;10.15;;;10.60;99.90;;;;;;5056591;28;20140;-93
2021/08/21 02:41:28;;;;;;;16.17;10.27;;;10.70;99.90;;;;;;5056596;28;20124;-93
2021/08/21 02:43:54;;;;;;;11.80;10.05;;;10.60;99.90;;;;;;5056531;28;20136;-94
2021/08/21 02:46:21;;;;;;;12.10;10.45;;;10.60;99.90;;;;;;5056117;28;20135;-93
2021/08/21 02:48:48;;;;;;;15.63;10.38;;;10.60;99.90;;;;;;5056682;28;20140;-93
2021/08/21 02:51:15;;;;;;;13.23;10.05;;;10.70;99.90;;;;;;5060285;28;20048;-94
2021/08/21 02:53:43;;;;;;;11.10;9.98;;;10.70;99.90;;;;;;5062242;28;20135;-93
2021/08/21 02:56:10;;;;;;;12.57;9.60;;;10.70;99.90;;;;;;5057469;28;20402;-93
2021/08/21 02:58:37;;;;;;;10.13;8.93;;;10.80;99.90;;;;;;5056600;28;20131;-93
2021/08/21 03:01:04;;;;;;;11.35;9.23;;;10.80;99.90;;;;;;5057557;28;20132;-94
2021/08/21 03:03:31;;;;;;;9.38;8.18;;;10.80;99.90;;;;;;5057398;28;20052;-94
2021/08/21 03:05:58;;;;;;;10.82;8.73;;;10.80;99.90;;;;;;5061619;28;20115;-93
2021/08/21 03:08:24;;;;;;;10.40;8.68;;;10.80;99.90;;;;;;5063862;28;20139;-94
2021/08/21 03:10:51;;;;;;;13.02;8.77;;;10.70;99.90;;;;;;5057874;28;20111;-94
2021/08/21 03:13:18;;;;;;;9.52;8.52;;;10.70;99.90;;;;;;5058562;28;20079;-94
2021/08/21 03:15:45;;;;;;;11.95;8.88;;;10.60;99.90;;;;;;5058022;28;20408;-94
2021/08/21 03:18:11;;;;;;;11.25;9.20;;;10.60;99.90;;;;;;5057506;28;20056;-93
2021/08/21 03:20:38;;;;;;;12.27;9.55;;;10.40;99.90;;;;;;5057689;28;20079;-94
2021/08/21 03:23:05;;;;;;;10.07;8.60;;;10.40;99.90;;;;;;5057678;28;20135;-93
2021/08/21 03:25:32;;;;;;;11.02;8.52;;;10.40;99.90;;;;;;5056811;28;20083;-94
2021/08/21 03:27:58;;;;;;;12.63;8.85;;;10.30;99.90;;;;;;5056668;28;20499;-93
2021/08/21 03:30:26;;;;;;;14.32;8.80;;;10.20;99.90;;;;;;5056798;28;20135;-94
2021/08/21 03:32:52;;;;;;;9.65;8.57;;;10.10;99.90;;;;;;5056534;28;20136;-94
2021/08/21 03:35:19;;;;;;;10.63;9.23;;;10.10;99.90;;;;;;5055548;28;20059;-94
2021/08/21 03:37:46;;;;;;;13.13;9.45;;;10.10;99.90;;;;;;5056668;28;20401;-94
2021/08/21 03:40:13;;;;;;;14.23;9.52;;;10.10;99.90;;;;;;5056228;28;20450;-94
2021/08/21 03:42:40;;;;;;;11.75;9.63;;;10.10;99.90;;;;;;5055648;28;20143;-93
2021/08/21 03:45:07;;;;;;;8.98;8.07;;;10.10;99.90;;;;;;5056386;28;20044;-94
2021/08/21 03:47:34;;;;;;;11.25;9.20;;;10.10;99.90;;;;;;5055645;28;20070;-94
2021/08/21 03:50:01;;;;;;;12.80;8.98;;;10.00;99.90;;;;;;5055764;28;20415;-93
2021/08/21 03:52:28;;;;;;;9.95;8.52;;;9.90;99.90;;;;;;5057628;28;20053;-94
2021/08/21 03:54:55;;;;;;;11.80;9.10;;;9.90;99.90;;;;;;5057263;28;20120;-94
2021/08/21 03:57:21;;;;;;;12.68;8.90;;;9.80;99.90;;;;;;5056333;28;20067;-94
2021/08/21 03:59:48;;;;;;;13.27;9.85;;;9.80;99.90;;;;;;5056744;28;20139;-94
2021/08/21 04:02:15;;;;;;;13.32;9.57;;;9.80;99.90;;;;;;5056846;28;20055;-94
2021/08/21 04:04:42;;;;;;;10.55;8.98;;;9.80;99.90;;;;;;5056365;28;20071;-95
2021/08/21 04:07:08;;;;;;;15.77;8.88;;;9.70;99.90;;;;;;5056583;28;20143;-95
2021/08/21 04:09:36;;;;;;;14.60;9.65;;;9.60;99.90;;;;;;5056512;28;20048;-94
2021/08/21 04:12:03;;;;;;;13.80;9.68;;;9.50;99.90;;;;;;5059634;28;20056;-94
2021/08/21 04:14:29;;;;;;;11.85;9.73;;;9.40;99.90;;;;;;5067331;28;20127;-94
2021/08/21 04:16:56;;;;;;;13.10;9.48;;;9.50;99.90;;;;;;5061189;28;20135;-94
2021/08/21 04:19:23;;;;;;;12.55;9.27;;;9.50;99.90;;;;;;5059483;28;20075;-94
2021/08/21 04:21:49;;;;;;;14.32;10.57;;;9.50;99.90;;;;;;5059655;28;20139;-95
2021/08/21 04:24:16;;;;;;;16.10;11.00;;;9.60;99.90;;;;;;5060998;28;20565;-94
2021/08/21 04:26:43;;;;;;;13.82;10.85;;;9.70;99.90;;;;;;5078637;28;20068;-94
2021/08/21 04:29:13;;;;;;;16.00;10.77;;;9.70;99.90;;;;;;5059083;28;20055;-94
2021/08/21 04:31:40;;;;;;;16.50;10.43;;;9.70;99.90;;;;;;5059025;28;20075;-95
2021/08/21 04:34:06;;;;;;;17.25;10.70;;;9.70;99.90;;;;;;5059105;28;20469;-94
2021/08/21 04:36:33;;;;;;;15.32;10.32;;;9.80;99.90;;;;;;5058266;28;20140;-94
2021/08/21 04:39:00;;;;;;;12.20;9.77;;;9.70;99.90;;;;;;5058947;28;20140;-95
2021/08/21 04:41:27;;;;;;;11.48;9.45;;;9.70;99.90;;;;;;5063804;28;20052;-94
2021/08/21 04:43:53;;;;;;;16.00;9.90;;;9.80;99.90;;;;;;5059364;28;20128;-95
2021/08/21 04:46:20;;;;;;;13.40;10.20;;;9.90;99.90;;;;;;5059160;28;20087;-95
2021/08/21 04:48:47;;;;;;;13.00;10.40;;;9.90;99.90;;;;;;5059068;28;20059;-94
2021/08/21 04:51:14;;;;;;;14.55;10.63;;;10.00;99.90;;;;;;5058905;28;20163;-95
2021/08/21 04:53:41;;;;;;;13.63;9.77;;;10.00;99.90;;;;;;5058633;28;20131;-94
2021/08/21 04:56:08;;;;;;;14.18;11.20;;;10.10;99.90;;;;;;5058211;28;20140;-94
2021/08/21 04:58:34;;;;;;;16.38;12.10;;;10.10;99.90;;;;;;5058486;28;20045;-94
2021/08/21 05:01:01;;;;;;;19.85;12.77;;;10.30;99.90;;;;;;5058556;28;20572;-94
2021/08/21 05:03:28;;;;;;;16.77;11.98;;;10.40;99.90;;;;;;5058456;28;20047;-94
2021/08/21 05:05:55;;;;;;;19.98;11.80;;;10.60;99.90;;;;;;5058559;28;20388;-94
2021/08/21 05:08:21;;;;;;;13.68;10.57;;;10.70;99.90;;;;;;5058397;28;20410;-93
2021/08/21 05:10:48;;;;;;;15.50;10.95;;;10.70;99.90;;;;;;5058532;28;20055;-95
2021/08/21 05:13:15;;;;;;;19.23;11.15;;;10.80;99.90;;;;;;5058555;28;20044;-94
2021/08/21 05:15:41;;;;;;;14.65;10.55;;;11.00;99.90;;;;;;5057918;28;20048;-94
2021/08/21 05:18:10;;;;;;;12.55;10.20;;;11.10;99.90;;;;;;5057724;28;20132;-94
2021/08/21 05:20:50;;;;;;;11.00;9.02;;;11.40;99.90;;;;;;5057883;28;20087;-94
2021/08/21 05:23:17;;;;;;;13.48;9.18;;;11.50;99.90;;;;;;5057985;28;20131;-94
2021/08/21 05:25:46;;;;;;;12.73;9.13;;;11.60;99.90;;;;;;5058678;28;20079;-93
2021/08/21 05:28:15;;;;;;;11.35;8.02;;;11.60;99.90;;;;;;5057520;28;20049;-94
2021/08/21 05:30:42;;;;;;;12.85;8.90;;;11.70;99.90;;;;;;5057857;28;20053;-94
2021/08/21 05:33:15;;;;;;;17.58;8.73;;;11.90;99.90;;;;;;5058107;28;20072;-94
2021/08/21 05:35:42;;;;;;;15.95;8.93;;;11.90;99.90;;;;;;5057556;28;20139;-94
2021/08/21 05:38:10;;;;;;;9.98;8.45;;;11.90;99.90;;;;;;5058266;28;20139;-93
2021/08/21 05:40:38;;;;;;;9.05;7.93;;;12.10;99.90;;;;;;5057946;28;20055;-94
2021/08/21 05:43:07;;;;;;;9.05;7.43;;;12.30;99.90;;;;;;5059303;28;20471;-94
2021/08/21 05:45:33;;;;;;;9.60;7.75;;;12.30;99.90;;;;;;5068073;28;20128;-94
2021/08/21 05:48:00;;;;;;;10.55;6.95;;;12.60;99.90;;;;;;5060946;28;20605;-93
2021/08/21 05:50:27;;;;;;;16.48;7.50;;;12.70;99.90;;;;;;5057645;28;20045;-92
2021/08/21 05:52:54;;;;;;;9.32;5.80;;;12.80;99.90;;;;;;5088259;28;20127;-93
2021/08/21 05:55:20;;;;;;;8.40;6.60;;;13.00;99.90;;;;;;5060811;28;20051;-94
2021/08/21 05:57:47;;;;;;;8.85;6.32;;;13.10;99.90;;;;;;5063474;28;20048;-93
2021/08/21 06:00:15;;;;;;;12.13;6.47;;;13.30;99.90;;;;;;5063065;28;20045;-92
2021/08/21 06:02:42;;;;;;;10.00;6.32;;;13.50;99.90;;;;;;5065794;28;20044;-91
2021/08/21 06:05:11;;;;;;;7.28;6.47;;;13.50;99.90;;;;;;5063039;28;20123;-92
2021/08/21 06:07:39;;;;;;;14.32;6.45;;;13.40;99.90;;;;;;5057429;28;20556;-92
2021/08/21 06:10:07;;;;;;;9.23;6.07;;;13.60;99.90;;;;;;5056371;28;20072;-92
2021/08/21 06:12:34;;;;;;;8.30;6.13;;;13.70;99.90;;;;;;5063282;28;20053;-92
2021/08/21 06:15:02;;;;;;;7.40;5.95;;;13.90;99.90;;;;;;5061984;28;20064;-92
2021/08/21 06:17:29;;;;;;;9.10;5.88;;;14.10;99.90;;;;;;5067403;28;20515;-91
2021/08/21 06:19:58;;;;;;;7.10;5.60;;;14.20;99.90;;;;;;5069548;28;20136;-92
2021/08/21 06:22:25;;;;;;;10.38;6.25;;;14.30;99.90;;;;;;5070122;28;20105;-90
2021/08/21 06:24:52;;;;;;;6.40;5.53;;;14.20;99.90;;;;;;5072794;28;20124;-92
2021/08/21 06:27:19;;;;;;;11.43;5.88;;;14.40;99.90;;;;;;5072871;28;20511;-91
2021/08/21 06:29:45;;;;;;;6.95;5.32;;;14.60;99.90;;;;;;5073102;28;20158;-91
2021/08/21 06:32:12;;;;;;;5.97;5.43;;;14.70;99.90;;;;;;5072934;28;20044;-92
2021/08/21 06:34:39;;;;;;;5.72;5.32;;;14.90;99.90;;;;;;5073041;28;20052;-92
2021/08/21 06:37:06;;;;;;;6.40;5.38;;;15.00;99.90;;;;;;5072192;28;20059;-92
2021/08/21 06:39:33;;;;;;;5.20;4.65;;;15.10;99.90;;;;;;5071322;28;20048;-91
2021/08/21 06:42:01;;;;;;;5.30;4.78;;;15.40;99.90;;;;;;5071544;28;20127;-91
2021/08/21 06:44:28;;;;;;;4.88;4.53;;;15.70;99.90;;;;;;5071045;28;20040;-92
2021/08/21 06:46:55;;;;;;;5.15;4.65;;;16.10;99.90;;;;;;5071312;28;20127;-91
2021/08/21 06:49:21;;;;;;;4.90;4.50;;;16.40;99.90;;;;;;5071113;28;20067;-92
2021/08/21 06:51:48;;;;;;;6.43;4.80;;;16.70;99.90;;;;;;5072279;28;20131;-92
2021/08/21 06:54:15;;;;;;;5.43;5.03;;;16.70;99.90;;;;;;5073328;28;20062;-92
2021/08/21 06:56:41;;;;;;;4.70;4.32;;;16.70;99.90;;;;;;5072707;28;20056;-91
2021/08/21 06:59:08;;;;;;;4.93;4.50;;;16.60;99.90;;;;;;5073159;28;20468;-92
2021/08/21 07:01:37;;;;;;;5.68;4.63;;;17.00;99.90;;;;;;5072799;28;20472;-91
2021/08/21 07:04:04;;;;;;;5.35;4.63;;;17.40;99.90;;;;;;5073748;28;20083;-92
2021/08/21 07:06:31;;;;;;;6.55;4.68;;;17.70;99.90;;;;;;5073068;28;20082;-91
2021/08/21 07:08:58;;;;;;;4.40;4.00;;;18.00;99.90;;;;;;5072609;28;20485;-90
2021/08/21 07:11:25;;;;;;;4.03;3.72;;;18.20;99.90;;;;;;5072715;28;20059;-92
2021/08/21 07:13:52;;;;;;;4.55;4.13;;;18.30;99.90;;;;;;5072808;28;20044;-92
2021/08/21 07:16:18;;;;;;;4.55;4.07;;;18.60;99.90;;;;;;5072390;28;20052;-92
2021/08/21 07:18:45;;;;;;;5.10;4.70;;;18.70;99.90;;;;;;5072503;28;20051;-91
2021/08/21 07:21:12;;;;;;;4.97;4.60;;;18.70;99.90;;;;;;5072752;28;20553;-91
2021/08/21 07:23:39;;;;;;;4.68;4.28;;;18.80;99.90;;;;;;5072740;28;20052;-91
2021/08/21 07:26:06;;;;;;;4.28;3.75;;;19.30;99.90;;;;;;5072496;28;20462;-91
2021/08/21 07:28:32;;;;;;;4.32;3.90;;;19.70;99.90;;;;;;5071910;28;20131;-91
2021/08/21 07:31:00;;;;;;;7.05;4.25;;;20.10;99.90;;;;;;5072406;28;20131;-91
2021/08/21 07:33:28;;;;;;;4.93;4.35;;;21.30;99.90;;;;;;5072379;28;20079;-92
2021/08/21 07:35:55;;;;;;;4.45;4.05;;;21.90;99.90;;;;;;5072387;28;20468;-91
2021/08/21 07:38:22;;;;;;;14.13;4.70;;;22.20;99.90;;;;;;5072465;28;20048;-92
2021/08/21 07:40:50;;;;;;;12.90;4.80;;;22.50;99.90;;;;;;5072548;28;20143;-92
2021/08/21 07:43:17;;;;;;;11.55;4.45;;;22.60;99.90;;;;;;5072505;28;20131;-91
2021/08/21 07:45:46;;;;;;;8.60;4.82;;;22.80;99.90;;;;;;5071612;28;20052;-89
2021/08/21 07:48:14;;;;;;;15.95;5.28;;;23.00;99.90;;;;;;5072211;28;20049;-91
2021/08/21 07:50:42;;;;;;;20.35;5.07;;;23.30;99.90;;;;;;5073128;28;20139;-90
2021/08/21 07:53:11;;;;;;;10.20;3.80;;;23.40;99.90;;;;;;5072599;28;20040;-90
2021/08/21 07:55:38;;;;;;;6.82;4.10;;;23.50;99.90;;;;;;5072084;28;20051;-90
2021/08/21 07:58:05;;;;;;;9.85;4.13;;;24.20;99.90;;;;;;5072504;28;20132;-89
2021/08/21 08:00:32;;;;;;;8.00;4.28;;;25.70;99.90;;;;;;5071647;28;20053;-92
2021/08/21 08:03:00;;;;;;;6.57;3.83;;;26.40;99.80;;;;;;5072222;28;20048;-91
2021/08/21 08:05:26;;;;;;;11.32;5.28;;;27.80;95.00;;;;;;5072230;28;20063;-88
2021/08/21 08:07:53;;;;;;;13.88;4.60;;;27.50;91.80;;;;;;5072458;28;20143;-90
2021/08/21 08:10:22;;;;;;;10.10;3.95;;;26.90;92.00;;;;;;5073138;28;20056;-89
2021/08/21 08:12:49;;;;;;;9.65;4.13;;;26.60;93.30;;;;;;5072087;28;20131;-88
2021/08/21 08:15:16;;;;;;;9.50;3.97;;;27.40;92.50;;;;;;5071810;28;20499;-90
2021/08/21 08:17:42;;;;;;;7.40;4.03;;;28.30;91.70;;;;;;5071993;28;20549;-88
2021/08/21 08:20:10;;;;;;;6.20;3.80;;;29.20;88.60;;;;;;5072219;28;20044;-90
2021/08/21 08:22:37;;;;;;;6.43;3.58;;;30.60;84.50;;;;;;5088429;28;20112;-90
2021/08/21 08:25:04;;;;;;;4.45;3.40;;;32.30;78.70;;;;;;5087187;28;20045;-88
2021/08/21 08:27:31;;;;;;;3.78;3.25;;;32.20;74.20;;;;;;5073089;28;20067;-87
2021/08/21 08:29:58;;;;;;;3.13;2.85;;;33.30;68.80;;;;;;5071926;28;20573;-88
2021/08/21 08:32:25;;;;;;;5.22;3.00;;;34.80;66.70;;;;;;5071680;28;20058;-89
2021/08/21 08:34:52;;;;;;;6.43;3.10;;;34.70;66.20;;;;;;5071936;28;20532;-91
2021/08/21 08:37:18;;;;;;;4.07;3.28;;;35.30;62.80;;;;;;5071778;28;20140;-91
2021/08/21 08:39:45;;;;;;;3.45;3.15;;;36.30;61.20;;;;;;5072408;28;20135;-90
2021/08/21 08:42:13;;;;;;;4.72;2.97;;;35.50;59.80;;;;;;5071711;28;20139;-89
2021/08/21 08:44:48;;;;;;;3.13;2.92;;;35.40;60.50;;;;;;5071667;28;20091;-90
2021/08/21 08:47:15;;;;;;;3.88;2.70;;;36.30;60.10;;;;;;5071816;28;20139;-90
2021/08/21 08:49:46;;;;;;;4.10;3.00;;;36.80;58.70;;;;;;5071786;28;20549;-88
2021/08/21 08:52:14;;;;;;;2.60;2.40;;;36.80;56.30;;;;;;5071980;28;20144;-89
2021/08/21 08:54:41;;;;;;;3.72;2.80;;;37.30;55.60;;;;;;5071631;28;20131;-90
2021/08/21 08:57:08;;;;;;;2.53;2.33;;;37.50;55.50;;;;;;5073011;28;20164;-88
2021/08/21 08:59:35;;;;;;;2.30;1.98;;;36.30;56.00;;;;;;5075351;28;20128;-89
2021/08/21 09:02:02;;;;;;;2.10;1.90;;;36.60;56.50;;;;;;5075277;28;20482;-89
2021/08/21 09:04:29;;;;;;;1.80;1.70;;;37.40;54.70;;;;;;5075204;28;20068;-88
2021/08/21 09:06:56;;;;;;;2.83;1.77;;;38.40;52.80;;;;;;5075105;28;20051;-89
2021/08/21 09:09:25;;;;;;;2.33;1.58;;;39.30;51.50;;;;;;5075066;28;20156;-89
2021/08/21 09:11:54;;;;;;;1.50;1.40;;;40.50;50.60;;;;;;5074940;28;20053;-89
2021/08/21 09:14:29;;;;;;;1.85;1.40;;;40.30;50.60;;;;;;5074792;28;20102;-89
2021/08/21 09:17:20;;;;;;;1.48;1.40;;;41.00;49.00;;;;;;5074936;28;20067;-87
2021/08/21 09:19:48;;;;;;;2.47;1.50;;;41.00;48.10;;;;;;5074850;28;20537;-88
2021/08/21 09:22:15;;;;;;;2.08;1.75;;;39.70;48.40;;;;;;5074820;28;20058;-91
2021/08/21 09:24:42;;;;;;;3.55;1.92;;;40.20;49.40;;;;;;5074840;28;20049;-89
2021/08/21 09:27:22;;;;;;;2.53;1.90;;;37.00;49.80;;;;;;5074504;28;20139;-88
2021/08/21 09:30:13;;;;;;;1.98;1.77;;;34.70;54.70;;;;;;5074833;28;20072;-89
2021/08/21 09:32:41;;;;;;;3.53;2.25;;;34.00;56.10;;;;;;5074497;28;20139;-90
2021/08/21 09:35:10;;;;;;;1.80;1.70;;;34.10;56.50;;;;;;5074663;28;20072;-88
2021/08/21 09:37:48;;;;;;;4.13;1.60;;;34.20;56.60;;;;;;5075070;28;20155;-89
2021/08/21 09:40:24;;;;;;;1.80;1.70;;;33.50;56.00;;;;;;5078868;28;20055;-90
2021/08/21 09:42:50;;;;;;;2.50;1.83;;;32.20;58.00;;;;;;5092487;28;20068;-88
2021/08/21 09:45:20;;;;;;;1.60;1.60;;;30.80;60.70;;;;;;5075827;28;20044;-88
2021/08/21 09:47:47;;;;;;;3.03;2.00;;;30.30;62.50;;;;;;5074126;28;20054;-87
2021/08/21 09:50:19;;;;;;;2.13;1.95;;;30.00;65.30;;;;;;5074033;28;20052;-87
2021/08/21 09:52:48;;;;;;;2.00;1.90;;;29.70;66.30;;;;;;5075211;28;20199;-87
2021/08/21 09:55:20;;;;;;;2.83;2.13;;;29.00;65.10;;;;;;5073884;28;20063;-87
2021/08/21 09:58:00;;;;;;;3.55;2.90;;;28.30;68.90;;;;;;5074160;28;20128;-86
2021/08/21 10:00:29;;;;;;;3.08;2.33;;;27.90;71.80;;;;;;5074132;28;20051;-86
2021/08/21 10:02:59;;;;;;;2.70;2.20;;;27.70;72.10;;;;;;5074034;28;20059;-88
2021/08/21 10:05:27;;;;;;;2.92;2.72;;;27.50;73.90;;;;;;5073984;28;20075;-86
2021/08/21 10:07:58;;;;;;;2.30;2.10;;;27.20;75.20;;;;;;5073741;28;20492;-87
2021/08/21 10:10:33;;;;;;;3.03;2.83;;;27.50;76.50;;;;;;5075181;28;20055;-87
2021/08/21 10:13:08;;;;;;;2.40;2.30;;;28.70;74.30;;;;;;5074881;28;20052;-88
2021/08/21 10:15:40;;;;;;;2.20;2.10;;;29.50;72.30;;;;;;5073831;28;20503;-87
2021/08/21 10:18:09;;;;;;;2.40;2.30;;;29.80;69.20;;;;;;5073384;28;20386;-87
2021/08/21 10:20:37;;;;;;;2.88;2.58;;;29.80;69.00;;;;;;5073376;28;20049;-87
2021/08/21 10:23:10;;;;;;;2.10;2.00;;;29.40;70.20;;;;;;5073482;28;20048;-87
2021/08/21 10:25:42;;;;;;;1.77;1.67;;;29.40;70.30;;;;;;5073354;28;20048;-88
2021/08/21 10:28:13;;;;;;;2.00;1.90;;;31.00;69.20;;;;;;5073011;28;20055;-88
2021/08/21 10:30:48;;;;;;;3.45;2.38;;;32.50;64.60;;;;;;5073245;28;20422;-90
2021/08/21 10:33:15;;;;;;;2.20;2.00;;;33.50;63.20;;;;;;5075572;28;20489;-88
2021/08/21 10:35:51;;;;;;;1.48;1.48;;;33.70;59.90;;;;;;5076235;28;20062;-88
2021/08/21 10:38:33;;;;;;;1.90;1.80;;;35.60;57.20;;;;;;5074320;28;20059;-90
2021/08/21 10:41:10;;;;;;;1.77;1.67;;;35.30;54.40;;;;;;5072999;28;20045;-87
2021/08/21 10:43:48;;;;;;;3.28;1.88;;;34.00;56.00;;;;;;5073283;28;20053;-88
2021/08/21 10:46:30;;;;;;;1.23;1.13;;;32.60;57.60;;;;;;5073024;28;20131;-87
2021/08/21 10:48:58;;;;;;;1.70;1.60;;;31.40;58.10;;;;;;5073330;28;20131;-88
2021/08/21 10:51:40;;;;;;;2.28;1.70;;;30.80;61.90;;;;;;5072867;28;20068;-89
2021/08/21 10:54:18;;;;;;;3.58;2.22;;;29.70;63.20;;;;;;5073252;28;20059;-87
2021/08/21 10:56:46;;;;;;;1.70;1.60;;;29.70;66.20;;;;;;5073004;28;20054;-89
2021/08/21 10:59:32;;;;;;;1.60;1.50;;;30.10;63.90;;;;;;5074317;28;20044;-88
2021/08/21 11:02:33;;;;;;;1.70;1.60;;;29.60;64.80;;;;;;5090432;28;20075;-88
2021/08/21 11:05:01;;;;;;;1.67;1.58;;;29.50;65.30;;;;;;5073526;28;20045;-88
2021/08/21 11:07:31;;;;;;;1.52;1.52;;;29.20;65.50;;;;;;5073062;28;20450;-87
2021/08/21 11:10:17;;;;;;;3.60;1.60;;;29.10;66.80;;;;;;5072898;28;20132;-87
2021/08/21 11:12:50;;;;;;;1.48;1.40;;;28.70;65.50;;;;;;5072742;28;20129;-87
2021/08/21 11:15:23;;;;;;;1.30;1.20;;;28.70;67.10;;;;;;5073086;28;20136;-87
2021/08/21 11:17:50;;;;;;;1.20;1.20;;;28.60;67.50;;;;;;5072685;28;20052;-86
2021/08/21 11:20:23;;;;;;;1.52;1.42;;;28.40;66.70;;;;;;5072019;28;20044;-86
2021/08/21 11:23:08;;;;;;;4.03;3.10;;;28.10;68.80;;;;;;5072579;28;20393;-86
2021/08/21 11:25:37;;;;;;;1.70;1.60;;;27.80;71.40;;;;;;5072452;28;20048;-87
2021/08/21 11:28:07;;;;;;;1.50;1.40;;;28.00;70.60;;;;;;5072386;28;20416;-87
2021/08/21 11:30:35;;;;;;;1.90;1.60;;;28.20;69.30;;;;;;5072336;28;20053;-87
2021/08/21 11:33:08;;;;;;;1.33;1.33;;;28.60;70.40;;;;;;5073729;28;20503;-87
2021/08/21 11:35:37;;;;;;;2.20;1.20;;;28.40;69.00;;;;;;5072318;28;20058;-87
2021/08/21 11:38:05;;;;;;;1.40;1.33;;;28.40;68.70;;;;;;5072464;28;20412;-89
2021/08/21 11:40:39;;;;;;;1.60;1.50;;;28.40;69.10;;;;;;5072418;28;20044;-86
2021/08/21 11:43:29;;;;;;;2.55;1.70;;;28.30;69.90;;;;;;5072306;28;20056;-87
2021/08/21 11:45:58;;;;;;;1.85;1.75;;;28.70;70.90;;;;;;5072283;28;20082;-86
2021/08/21 11:48:30;;;;;;;1.40;1.30;;;28.80;69.30;;;;;;5072354;28;20136;-87
2021/08/21 11:50:58;;;;;;;1.35;1.30;;;29.00;69.20;;;;;;5072682;28;20132;-86
2021/08/21 11:53:39;;;;;;;1.63;1.52;;;28.90;68.30;;;;;;5073575;28;20143;-87
2021/08/21 11:56:06;;;;;;;1.30;1.30;;;28.90;68.90;;;;;;5072122;28;20052;-86
2021/08/21 11:58:34;;;;;;;1.42;1.33;;;28.70;69.30;;;;;;5071920;28;20075;-86
2021/08/21 12:01:30;;;;;;;1.67;1.50;;;28.80;67.20;;;;;;5072445;28;20045;-86
2021/08/21 12:06:36;;;;;;;1.38;1.27;;;28.30;69.00;;;;;;5072707;28;20060;-86
2021/08/21 12:09:10;;;;;;;1.30;1.20;;;28.60;69.80;;;;;;5072287;28;20141;-87
2021/08/21 12:11:39;;;;;;;1.77;1.10;;;29.00;70.00;;;;;;5072314;28;20132;-86
2021/08/21 12:14:06;;;;;;;1.65;1.55;;;29.30;70.00;;;;;;5072382;28;20454;-86
2021/08/21 12:16:35;;;;;;;2.25;1.10;;;29.60;67.70;;;;;;5071800;28;20056;-86
2021/08/21 12:19:04;;;;;;;1.23;1.23;;;29.60;66.80;;;;;;5075560;28;20052;-87
2021/08/21 12:21:31;;;;;;;1.33;1.23;;;29.90;66.50;;;;;;5088890;28;20048;-86
2021/08/21 12:23:58;;;;;;;2.58;1.00;;;30.20;65.50;;;;;;5072999;28;20515;-87
2021/08/21 12:26:37;;;;;;;1.67;1.08;;;30.10;63.20;;;;;;5071986;28;20044;-87
2021/08/21 12:29:21;;;;;;;1.08;1.08;;;29.40;64.30;;;;;;5072298;28;20052;-86
2021/08/21 12:31:48;;;;;;;1.02;0.90;;;29.40;65.60;;;;;;5074932;28;20113;-87
2021/08/21 12:34:17;;;;;;;1.00;1.00;;;29.10;62.30;;;;;;5076445;28;20135;-86
2021/08/21 12:36:44;;;;;;;1.75;0.95;;;28.90;65.10;;;;;;5075931;28;20468;-86
2021/08/21 12:39:23;;;;;;;1.05;0.95;;;29.00;65.30;;;;;;5075879;28;20052;-87
2021/08/21 12:42:05;;;;;;;1.05;1.05;;;29.10;66.10;;;;;;5074617;28;20044;-87
2021/08/21 12:44:34;;;;;;;0.93;0.93;;;29.30;65.70;;;;;;5075986;28;20485;-86
2021/08/21 12:47:03;;;;;;;1.98;0.90;;;28.90;63.50;;;;;;5075799;28;20139;-86
2021/08/21 12:49:40;;;;;;;1.08;0.98;;;28.80;65.60;;;;;;5075483;28;20139;-86
2021/08/21 12:52:16;;;;;;;4.00;1.00;;;28.90;65.40;;;;;;5075511;28;20048;-85
2021/08/21 12:54:44;;;;;;;2.38;1.00;;;29.00;64.00;;;;;;5075260;28;20044;-86